Time;durP1;ratioP1;P1;durP2;ratioP2;P2;SDS_P1;SDS_P2;PMS_P1;PMS_P2;Temp;Humidity;BMP_temperature;BMP_pressure;BME280_temperature;BME280_humidity;BME280_pressure;Samples;Min_cycle;Max_cycle;Signal;HPM_P1;HPM_P2
2022/07/15 00:00:08;;;;;;;0.30;0.30;;;19.00;1.00;;;;;;5033804;28;20172;-78
2022/07/15 00:02:33;;;;;;;0.30;0.30;;;18.90;1.00;;;;;;5032470;28;20281;-78
2022/07/15 00:04:59;;;;;;;0.30;0.30;;;18.90;1.00;;;;;;5034122;28;20207;-78
2022/07/15 00:07:24;;;;;;;0.40;0.40;;;18.80;1.00;;;;;;5034189;28;20199;-78
2022/07/15 00:12:34;;;;;;;0.30;0.30;;;18.70;1.00;;;;;;5034055;28;20215;-79
2022/07/15 00:15:01;;;;;;;0.20;0.20;;;18.60;1.00;;;;;;5034995;28;20192;-79
2022/07/15 00:17:26;;;;;;;0.40;0.40;;;18.50;1.00;;;;;;5034356;28;20192;-79
2022/07/15 00:19:52;;;;;;;0.30;0.30;;;18.50;1.00;;;;;;5034433;28;20228;-78
2022/07/15 00:22:17;;;;;;;0.20;0.20;;;18.50;1.00;;;;;;5033986;28;20222;-79
2022/07/15 00:24:43;;;;;;;0.30;0.30;;;18.40;1.00;;;;;;5034692;28;20172;-79
2022/07/15 00:27:08;;;;;;;0.23;0.23;;;18.40;1.00;;;;;;5035254;28;20184;-80
2022/07/15 00:29:34;;;;;;;0.23;0.23;;;18.40;1.00;;;;;;5035287;28;20302;-79
2022/07/15 00:31:59;;;;;;;0.20;0.20;;;18.40;1.00;;;;;;5034038;28;20218;-80
2022/07/15 00:34:25;;;;;;;0.20;0.20;;;18.40;1.00;;;;;;5035033;28;20203;-79
2022/07/15 00:36:51;;;;;;;0.30;0.30;;;18.40;1.00;;;;;;5034259;28;20203;-81
2022/07/15 00:39:16;;;;;;;0.30;0.30;;;18.30;1.00;;;;;;5033477;28;20529;-79
2022/07/15 00:41:43;;;;;;;0.30;0.30;;;18.30;1.00;;;;;;5032992;28;20183;-80
2022/07/15 00:44:10;;;;;;;0.30;0.30;;;18.30;1.00;;;;;;5035341;28;20180;-78
2022/07/15 00:46:36;;;;;;;0.30;0.30;;;18.30;1.00;;;;;;5039401;28;20180;-78
2022/07/15 00:49:07;;;;;;;0.30;0.30;;;18.20;1.00;;;;;;5040229;28;20657;-77
2022/07/15 00:51:41;;;;;;;0.30;0.30;;;18.20;1.00;;;;;;5041227;28;20180;-78
2022/07/15 00:54:12;;;;;;;0.30;0.30;;;18.20;1.00;;;;;;5023007;28;20176;-78
2022/07/15 00:56:53;;;;;;;0.40;0.40;;;18.20;1.00;;;;;;5023826;28;20188;-79
2022/07/15 00:59:24;;;;;;;0.30;0.30;;;18.20;1.00;;;;;;5024500;28;20187;-78
2022/07/15 01:01:52;;;;;;;0.30;0.30;;;18.20;1.00;;;;;;5021301;28;20228;-78
2022/07/15 01:04:20;;;;;;;0.40;0.40;;;18.20;1.00;;;;;;5040494;28;20180;-78
2022/07/15 01:06:46;;;;;;;0.37;0.37;;;18.20;1.00;;;;;;5033579;28;20184;-77
2022/07/15 01:09:12;;;;;;;0.33;0.33;;;18.10;1.00;;;;;;5033543;28;20270;-78
2022/07/15 01:11:37;;;;;;;0.30;0.30;;;18.00;1.00;;;;;;5032435;28;20175;-78
2022/07/15 01:14:04;;;;;;;0.30;0.30;;;18.00;1.00;;;;;;5033327;28;20180;-79
2022/07/15 01:16:30;;;;;;;0.40;0.40;;;18.00;1.00;;;;;;5033855;28;20168;-78
2022/07/15 01:18:57;;;;;;;0.30;0.30;;;18.10;1.00;;;;;;5032829;28;20202;-78
2022/07/15 01:21:23;;;;;;;0.37;0.37;;;18.10;1.00;;;;;;5033659;28;20176;-78
2022/07/15 01:23:49;;;;;;;0.30;0.30;;;18.20;1.00;;;;;;5031867;28;20294;-77
2022/07/15 01:26:15;;;;;;;0.20;0.20;;;18.20;1.00;;;;;;5032460;28;20217;-78
2022/07/15 01:28:41;;;;;;;0.30;0.30;;;18.20;1.00;;;;;;5033619;28;20237;-78
2022/07/15 01:31:07;;;;;;;0.37;0.37;;;18.30;1.00;;;;;;5033095;28;20216;-77
2022/07/15 01:33:33;;;;;;;0.30;0.30;;;18.30;1.00;;;;;;5031273;28;20208;-77
2022/07/15 01:36:00;;;;;;;0.37;0.37;;;18.20;1.00;;;;;;5032334;28;20184;-78
2022/07/15 01:38:27;;;;;;;0.30;0.30;;;18.20;1.00;;;;;;5032200;28;20198;-78
2022/07/15 01:40:52;;;;;;;0.30;0.30;;;18.10;1.00;;;;;;5031452;28;20207;-78
2022/07/15 01:43:18;;;;;;;0.27;0.27;;;18.10;1.00;;;;;;5031422;28;20230;-78
2022/07/15 01:45:44;;;;;;;0.30;0.30;;;18.10;1.00;;;;;;5032682;28;20175;-78
2022/07/15 01:49:21;;;;;;;0.20;0.20;;;18.10;1.00;;;;;;5032926;28;20653;-78
2022/07/15 01:50:58;;;;;;;0.30;0.30;;;18.00;1.00;;;;;;5032389;28;20231;-78
2022/07/15 01:53:24;;;;;;;0.30;0.30;;;18.00;1.00;;;;;;5031731;28;20282;-77
2022/07/15 01:55:50;;;;;;;0.20;0.20;;;17.80;1.00;;;;;;5033324;28;20195;-77
2022/07/15 01:58:16;;;;;;;0.20;0.20;;;17.70;1.00;;;;;;5033016;28;20203;-78
2022/07/15 02:00:41;;;;;;;0.20;0.20;;;17.50;1.00;;;;;;5031240;28;20195;-77
2022/07/15 02:03:07;;;;;;;0.30;0.30;;;17.30;1.00;;;;;;5030469;28;20202;-78
2022/07/15 02:05:33;;;;;;;0.30;0.30;;;17.10;1.00;;;;;;5035607;28;20572;-77
2022/07/15 02:07:59;;;;;;;0.20;0.20;;;16.80;1.00;;;;;;5040476;28;20195;-78
2022/07/15 02:10:24;;;;;;;0.30;0.30;;;16.60;1.00;;;;;;5047705;28;20202;-78
2022/07/15 02:12:50;;;;;;;0.30;0.30;;;16.50;1.00;;;;;;5040003;28;20196;-78
2022/07/15 02:15:15;;;;;;;0.30;0.30;;;16.40;1.00;;;;;;5032436;28;20190;-77
2022/07/15 02:17:41;;;;;;;0.40;0.40;;;16.20;1.00;;;;;;5031570;28;20540;-78
2022/07/15 02:20:07;;;;;;;0.30;0.30;;;16.20;23.50;;;;;;5031620;28;20226;-78
2022/07/15 02:22:33;;;;;;;0.30;0.30;;;16.10;99.90;;;;;;5030983;28;20287;-78
2022/07/15 02:24:58;;;;;;;0.30;0.30;;;16.00;99.90;;;;;;5032743;28;20389;-78
2022/07/15 02:27:24;;;;;;;0.27;0.27;;;15.90;99.90;;;;;;5032551;28;20638;-78
2022/07/15 02:29:49;;;;;;;0.30;0.30;;;15.90;99.90;;;;;;5031946;28;20211;-79
2022/07/15 02:32:15;;;;;;;0.27;0.27;;;15.90;33.60;;;;;;5031493;28;20195;-77
2022/07/15 02:34:40;;;;;;;0.30;0.30;;;15.90;1.00;;;;;;5033959;28;20183;-78
2022/07/15 02:37:06;;;;;;;0.30;0.30;;;15.90;1.00;;;;;;5043979;28;20193;-79
2022/07/15 02:39:31;;;;;;;0.30;0.30;;;15.80;99.90;;;;;;5051623;28;20648;-77
2022/07/15 02:41:57;;;;;;;0.40;0.40;;;15.60;99.90;;;;;;5047459;28;20241;-78
2022/07/15 02:44:22;;;;;;;0.30;0.30;;;15.50;99.90;;;;;;5032289;28;20175;-79
2022/07/15 02:46:48;;;;;;;0.30;0.30;;;15.50;99.90;;;;;;5032023;28;20191;-78
2022/07/15 02:49:13;;;;;;;0.30;0.30;;;15.50;99.90;;;;;;5030872;28;20203;-78
2022/07/15 02:51:39;;;;;;;0.40;0.40;;;15.50;99.90;;;;;;5030289;28;20207;-79
2022/07/15 02:54:04;;;;;;;0.30;0.30;;;15.40;99.90;;;;;;5031513;28;20172;-78
2022/07/15 02:56:30;;;;;;;0.30;0.30;;;15.40;99.90;;;;;;5031262;28;20215;-78
2022/07/15 02:58:55;;;;;;;0.30;0.30;;;15.30;1.00;;;;;;5030527;28;20179;-78
2022/07/15 03:01:21;;;;;;;0.30;0.30;;;15.20;1.00;;;;;;5031165;28;20820;-78
2022/07/15 03:03:46;;;;;;;0.40;0.40;;;15.10;1.00;;;;;;5030185;28;20212;-78
2022/07/15 03:06:12;;;;;;;0.30;0.30;;;15.00;1.00;;;;;;5031910;28;20176;-78
2022/07/15 03:08:37;;;;;;;0.30;0.30;;;14.80;1.00;;;;;;5039605;28;20624;-78
2022/07/15 03:11:03;;;;;;;0.40;0.40;;;14.70;99.90;;;;;;5043921;28;20310;-78
2022/07/15 03:13:29;;;;;;;0.30;0.30;;;14.60;99.90;;;;;;5033684;28;20199;-78
2022/07/15 03:15:54;;;;;;;0.30;0.30;;;14.50;1.00;;;;;;5031204;28;20208;-78
2022/07/15 03:18:20;;;;;;;0.33;0.33;;;14.40;1.00;;;;;;5031857;28;20184;-77
2022/07/15 03:20:46;;;;;;;0.30;0.30;;;14.30;99.90;;;;;;5031400;28;20168;-78
2022/07/15 03:23:12;;;;;;;0.40;0.40;;;14.20;1.00;;;;;;5029600;28;20200;-78
2022/07/15 03:25:38;;;;;;;0.30;0.30;;;14.10;1.00;;;;;;5031019;28;20180;-78
2022/07/15 03:28:03;;;;;;;0.30;0.30;;;14.10;1.00;;;;;;5033305;28;20664;-78
2022/07/15 03:30:29;;;;;;;0.40;0.40;;;14.00;99.90;;;;;;5035816;28;20672;-78
2022/07/15 03:32:54;;;;;;;0.30;0.30;;;13.80;99.90;;;;;;5034570;28;20218;-78
2022/07/15 03:35:20;;;;;;;0.40;0.40;;;13.80;1.00;;;;;;5036001;28;20259;-77
2022/07/15 03:37:46;;;;;;;0.50;0.50;;;13.80;1.00;;;;;;5034858;28;20199;-78
2022/07/15 03:40:12;;;;;;;0.40;0.40;;;13.70;99.90;;;;;;5033883;28;20176;-79
2022/07/15 03:42:38;;;;;;;0.40;0.40;;;13.80;1.00;;;;;;5032809;28;20709;-79
2022/07/15 03:45:04;;;;;;;0.40;0.40;;;13.70;1.00;;;;;;5034314;28;20191;-78
2022/07/15 03:47:30;;;;;;;0.30;0.30;;;13.70;1.00;;;;;;5035148;28;20271;-78
2022/07/15 03:49:55;;;;;;;0.40;0.40;;;13.60;99.90;;;;;;5033954;28;20346;-78
2022/07/15 03:52:21;;;;;;;0.40;0.40;;;13.50;99.90;;;;;;5032775;28;20216;-77
2022/07/15 03:54:46;;;;;;;0.50;0.50;;;13.50;99.90;;;;;;5034316;28;20172;-78
2022/07/15 03:57:12;;;;;;;0.50;0.50;;;13.50;99.90;;;;;;5033829;28;20259;-77
2022/07/15 03:59:37;;;;;;;0.50;0.50;;;13.60;99.90;;;;;;5033988;28;20186;-77
2022/07/15 04:02:03;;;;;;;0.40;0.40;;;13.70;92.10;;;;;;5032726;28;20202;-78
2022/07/15 04:04:28;;;;;;;0.50;0.50;;;13.80;1.00;;;;;;5033775;28;20175;-77
2022/07/15 04:06:54;;;;;;;0.50;0.50;;;13.90;1.00;;;;;;5033848;28;20172;-77
2022/07/15 04:09:19;;;;;;;0.60;0.60;;;14.00;1.00;;;;;;5033192;28;20216;-78
2022/07/15 04:11:45;;;;;;;0.40;0.40;;;14.10;1.00;;;;;;5032429;28;20203;-77
2022/07/15 04:14:14;;;;;;;0.50;0.50;;;14.20;1.00;;;;;;5033607;28;20211;-76
2022/07/15 04:16:42;;;;;;;0.30;0.30;;;14.30;99.90;;;;;;5033445;28;20580;-76
2022/07/15 04:19:08;;;;;;;0.50;0.50;;;14.30;1.00;;;;;;5032804;28;20649;-77
2022/07/15 04:21:34;;;;;;;0.30;0.30;;;14.40;1.00;;;;;;5032369;28;20205;-76
2022/07/15 04:24:00;;;;;;;0.30;0.30;;;14.50;1.00;;;;;;5032754;28;20519;-77
2022/07/15 04:26:26;;;;;;;0.40;0.40;;;14.60;1.00;;;;;;5033160;28;20184;-77
2022/07/15 04:28:52;;;;;;;0.40;0.40;;;14.70;99.90;;;;;;5032735;28;20259;-76
2022/07/15 04:31:18;;;;;;;0.30;0.30;;;14.80;1.00;;;;;;5032975;28;20657;-76
2022/07/15 04:33:44;;;;;;;0.30;0.30;;;14.90;1.00;;;;;;5031505;28;20203;-76
2022/07/15 04:36:09;;;;;;;0.30;0.30;;;15.00;99.90;;;;;;5032849;28;20695;-76
2022/07/15 04:38:35;;;;;;;0.40;0.40;;;15.20;1.00;;;;;;5032891;28;20222;-77
2022/07/15 04:41:00;;;;;;;0.40;0.40;;;15.40;1.00;;;;;;5031557;28;20195;-76
2022/07/15 04:43:26;;;;;;;0.30;0.30;;;15.70;1.00;;;;;;5031511;28;20230;-77
2022/07/15 04:45:51;;;;;;;0.37;0.37;;;16.00;1.00;;;;;;5032763;28;20168;-77
2022/07/15 04:51:01;;;;;;;0.30;0.30;;;16.60;99.90;;;;;;5032308;28;20290;-76
2022/07/15 04:53:27;;;;;;;0.30;0.30;;;16.80;50.00;;;;;;5031708;28;20660;-76
2022/07/15 04:55:53;;;;;;;0.30;0.30;;;17.10;1.00;;;;;;5032805;28;20181;-77
2022/07/15 04:58:18;;;;;;;0.20;0.20;;;17.40;1.00;;;;;;5032793;28;20653;-77
2022/07/15 05:00:45;;;;;;;0.30;0.30;;;17.70;99.90;;;;;;5032078;28;20606;-77
2022/07/15 05:03:11;;;;;;;0.30;0.30;;;17.90;99.90;;;;;;5031368;28;20203;-77
2022/07/15 05:05:37;;;;;;;0.30;0.30;;;18.20;99.90;;;;;;5032384;28;20191;-76
2022/07/15 05:08:03;;;;;;;0.40;0.40;;;18.30;1.30;;;;;;5032481;28;20249;-77
2022/07/15 05:10:28;;;;;;;0.30;0.30;;;18.70;1.00;;;;;;5031993;28;20211;-77
2022/07/15 05:12:54;;;;;;;0.30;0.30;;;18.90;1.00;;;;;;5031573;28;20202;-77
2022/07/15 05:15:19;;;;;;;0.30;0.30;;;18.80;1.00;;;;;;5032118;28;20545;-77
2022/07/15 05:17:45;;;;;;;0.30;0.30;;;18.80;1.00;;;;;;5032463;28;20172;-77
2022/07/15 05:20:11;;;;;;;0.30;0.30;;;18.50;1.00;;;;;;5031700;28;20202;-78
2022/07/15 05:22:37;;;;;;;0.30;0.30;;;18.20;1.00;;;;;;5030821;28;20195;-77
2022/07/15 05:25:04;;;;;;;0.30;0.30;;;18.00;1.00;;;;;;5032208;28;20214;-76
2022/07/15 05:27:30;;;;;;;0.30;0.30;;;17.80;1.00;;;;;;5032394;28;20164;-77
2022/07/15 05:29:55;;;;;;;0.30;0.30;;;17.70;1.00;;;;;;5031454;28;20703;-76
2022/07/15 05:32:21;;;;;;;0.40;0.40;;;17.70;1.00;;;;;;5030259;28;20290;-76
2022/07/15 05:34:47;;;;;;;0.30;0.30;;;17.70;1.00;;;;;;5032166;28;20548;-76
2022/07/15 05:37:12;;;;;;;0.30;0.30;;;17.70;1.00;;;;;;5031708;28;20249;-77
2022/07/15 05:39:53;;;;;;;0.30;0.30;;;17.80;4.30;;;;;;5031292;28;20187;-77
2022/07/15 05:42:22;;;;;;;0.30;0.30;;;17.90;24.00;;;;;;5030832;28;20207;-77
2022/07/15 05:44:47;;;;;;;0.30;0.30;;;18.10;15.30;;;;;;5031811;28;20274;-77
2022/07/15 05:47:13;;;;;;;0.37;0.37;;;18.20;1.00;;;;;;5032282;28;20255;-78
2022/07/15 05:49:39;;;;;;;0.30;0.30;;;18.10;1.00;;;;;;5032153;28;20219;-77
2022/07/15 05:52:05;;;;;;;0.40;0.40;;;18.20;1.00;;;;;;5030588;28;20254;-77
2022/07/15 05:54:30;;;;;;;0.30;0.30;;;18.30;1.00;;;;;;5031589;28;20207;-77
2022/07/15 05:56:56;;;;;;;0.30;0.30;;;18.40;1.00;;;;;;5031716;28;20175;-77
2022/07/15 05:59:21;;;;;;;0.20;0.20;;;18.40;1.00;;;;;;5031301;28;20176;-77
2022/07/15 06:01:47;;;;;;;0.33;0.33;;;18.20;1.00;;;;;;5030593;28;20199;-77
2022/07/15 06:04:13;;;;;;;0.20;0.20;;;18.10;1.00;;;;;;5031611;28;20187;-77
2022/07/15 06:06:39;;;;;;;0.20;0.20;;;18.00;1.00;;;;;;5031615;28;20172;-77
2022/07/15 06:09:04;;;;;;;0.30;0.30;;;18.20;1.00;;;;;;5030958;28;20186;-77
2022/07/15 06:11:30;;;;;;;0.30;0.30;;;18.30;1.00;;;;;;5031442;28;20262;-77
2022/07/15 06:13:56;;;;;;;0.30;0.30;;;18.50;1.00;;;;;;5030086;28;20893;-77
2022/07/15 06:16:22;;;;;;;0.27;0.27;;;18.60;1.00;;;;;;5037555;28;20674;-77
2022/07/15 06:18:48;;;;;;;0.30;0.30;;;18.70;1.00;;;;;;5042618;28;20178;-77
2022/07/15 06:21:14;;;;;;;0.30;0.30;;;18.90;1.00;;;;;;5051159;28;20193;-77
2022/07/15 06:23:39;;;;;;;0.30;0.30;;;19.10;1.00;;;;;;5033836;28;20233;-77
2022/07/15 06:26:05;;;;;;;0.30;0.30;;;19.20;1.00;;;;;;5033070;28;20183;-77
2022/07/15 06:28:31;;;;;;;0.30;0.30;;;19.10;1.00;;;;;;5039016;28;20498;-79
2022/07/15 06:30:56;;;;;;;0.40;0.40;;;19.30;1.00;;;;;;5031903;28;20696;-78
2022/07/15 06:33:24;;;;;;;0.40;0.40;;;19.40;1.00;;;;;;5025590;28;20199;-78
2022/07/15 06:35:49;;;;;;;0.30;0.30;;;19.30;1.00;;;;;;5040010;28;20664;-79
2022/07/15 06:38:15;;;;;;;0.20;0.20;;;19.30;1.00;;;;;;5045478;28;20289;-78
2022/07/15 06:40:41;;;;;;;0.30;0.30;;;19.40;1.00;;;;;;5041633;28;20172;-78
2022/07/15 06:43:06;;;;;;;0.37;0.37;;;19.50;1.00;;;;;;5036338;28;20203;-78
2022/07/15 06:45:32;;;;;;;0.27;0.27;;;19.60;1.00;;;;;;5032343;28;20199;-79
2022/07/15 06:47:57;;;;;;;0.30;0.30;;;19.60;1.00;;;;;;5028487;28;20262;-78
2022/07/15 06:50:24;;;;;;;0.30;0.30;;;19.60;1.00;;;;;;5031404;28;20683;-78
2022/07/15 06:52:50;;;;;;;0.30;0.30;;;19.60;1.00;;;;;;5027536;28;20204;-78
2022/07/15 06:55:15;;;;;;;0.37;0.37;;;19.50;1.00;;;;;;5032094;28;20263;-78
2022/07/15 06:57:41;;;;;;;0.30;0.30;;;19.40;1.00;;;;;;5029989;28;20204;-78
2022/07/15 07:00:09;;;;;;;0.20;0.20;;;19.50;1.00;;;;;;5037340;28;20266;-78
2022/07/15 07:02:34;;;;;;;0.40;0.40;;;19.60;1.00;;;;;;5032556;28;20196;-78
2022/07/15 07:05:00;;;;;;;0.30;0.30;;;19.90;1.00;;;;;;5057148;28;20628;-79
2022/07/15 07:07:26;;;;;;;0.30;0.30;;;20.20;1.00;;;;;;5057680;28;20199;-77
2022/07/15 07:09:51;;;;;;;0.30;0.30;;;20.40;1.00;;;;;;5055786;28;20211;-79
2022/07/15 07:12:17;;;;;;;0.30;0.30;;;20.50;1.00;;;;;;5046889;28;20636;-78
2022/07/15 07:14:43;;;;;;;0.33;0.33;;;20.40;1.00;;;;;;5043939;28;20187;-77
2022/07/15 07:17:08;;;;;;;0.30;0.30;;;20.60;1.00;;;;;;5049565;28;20547;-78
2022/07/15 07:19:34;;;;;;;0.30;0.30;;;20.80;1.00;;;;;;5050660;28;20829;-78
2022/07/15 07:21:59;;;;;;;0.30;0.30;;;21.00;1.00;;;;;;5048974;28;20206;-78
2022/07/15 07:24:25;;;;;;;0.30;0.30;;;21.20;1.00;;;;;;5055807;28;20187;-78
2022/07/15 07:26:50;;;;;;;0.30;0.30;;;21.30;1.00;;;;;;5056025;28;20186;-77
2022/07/15 07:29:22;;;;;;;0.40;0.40;;;21.40;1.00;;;;;;5042668;28;20190;-77
2022/07/15 07:31:51;;;;;;;0.30;0.30;;;21.60;1.00;;;;;;5044070;28;20206;-77
2022/07/15 07:34:17;;;;;;;0.33;0.33;;;21.90;1.00;;;;;;5045884;28;20171;-78
2022/07/15 07:36:44;;;;;;;0.20;0.20;;;22.10;1.00;;;;;;5045542;28;20195;-78
2022/07/15 07:39:09;;;;;;;0.20;0.20;;;22.10;1.00;;;;;;5047577;28;20193;-77
2022/07/15 07:41:35;;;;;;;0.30;0.30;;;22.20;1.00;;;;;;5046473;28;20184;-79
2022/07/15 07:44:00;;;;;;;0.20;0.20;;;22.40;1.00;;;;;;5033136;28;20175;-78
2022/07/15 07:46:26;;;;;;;0.30;0.30;;;22.40;1.00;;;;;;5041468;28;20861;-78
2022/07/15 07:48:51;;;;;;;0.20;0.20;;;22.40;1.00;;;;;;5032830;28;20237;-79
2022/07/15 07:51:17;;;;;;;0.30;0.30;;;22.50;1.00;;;;;;5042723;28;20215;-78
2022/07/15 07:53:43;;;;;;;0.30;0.30;;;22.80;1.00;;;;;;5033947;28;20192;-79
2022/07/15 07:56:08;;;;;;;0.23;0.23;;;22.70;1.00;;;;;;5035379;28;20672;-78
2022/07/15 07:58:34;;;;;;;0.23;0.23;;;22.50;1.00;;;;;;5038234;28;20660;-78
2022/07/15 08:01:00;;;;;;;0.20;0.20;;;22.60;1.00;;;;;;5034605;28;20175;-78
2022/07/15 08:03:27;;;;;;;0.20;0.20;;;23.30;1.00;;;;;;5034246;28;20839;-76
2022/07/15 08:05:53;;;;;;;0.30;0.30;;;24.30;1.00;;;;;;5034656;28;20199;-78
2022/07/15 08:08:20;;;;;;;0.30;0.30;;;24.90;1.00;;;;;;5032773;28;20275;-77
2022/07/15 08:10:48;;;;;;;0.40;0.40;;;25.20;1.00;;;;;;5032955;28;20693;-78
2022/07/15 08:13:15;;;;;;;0.30;0.30;;;24.80;1.00;;;;;;5030734;28;20200;-79
2022/07/15 08:15:40;;;;;;;0.27;0.27;;;24.90;1.00;;;;;;5032294;28;20176;-76
2022/07/15 08:18:07;;;;;;;0.30;0.30;;;25.20;1.00;;;;;;5033630;28;20310;-77
2022/07/15 08:20:33;;;;;;;0.20;0.20;;;25.50;1.00;;;;;;5034216;28;20179;-77
2022/07/15 08:22:59;;;;;;;0.40;0.40;;;25.70;1.00;;;;;;5034436;28;20291;-78
2022/07/15 08:25:26;;;;;;;0.30;0.30;;;26.10;1.00;;;;;;5033627;28;20183;-78
2022/07/15 08:27:52;;;;;;;0.40;0.40;;;26.20;1.00;;;;;;5033591;28;20172;-78
2022/07/15 08:30:17;;;;;;;0.30;0.30;;;25.90;1.00;;;;;;5034586;28;20235;-77
2022/07/15 08:32:43;;;;;;;0.40;0.40;;;25.70;1.00;;;;;;5033191;28;20200;-76
2022/07/15 08:35:08;;;;;;;0.20;0.20;;;26.10;1.00;;;;;;5033513;28;20210;-77
2022/07/15 08:37:34;;;;;;;0.40;0.40;;;26.80;1.00;;;;;;5033714;28;20184;-77
2022/07/15 08:40:00;;;;;;;0.30;0.30;;;27.60;1.00;;;;;;5034168;28;20183;-79
2022/07/15 08:42:25;;;;;;;0.40;0.40;;;27.90;1.00;;;;;;5031786;28;20540;-76
2022/07/15 08:44:53;;;;;;;0.30;0.30;;;27.90;1.00;;;;;;5033219;28;20577;-76
2022/07/15 08:47:21;;;;;;;0.27;0.27;;;27.70;1.00;;;;;;5033105;28;20188;-76
2022/07/15 08:49:48;;;;;;;0.40;0.40;;;27.30;1.00;;;;;;5033220;28;20237;-75
2022/07/15 08:52:17;;;;;;;0.30;0.30;;;27.50;1.00;;;;;;5032837;28;20196;-77
2022/07/15 08:54:42;;;;;;;0.30;0.30;;;27.30;1.00;;;;;;5031551;28;20179;-76
2022/07/15 08:57:08;;;;;;;0.23;0.23;;;27.30;1.00;;;;;;5032536;28;20675;-77
2022/07/15 08:59:33;;;;;;;0.37;0.37;;;27.30;1.00;;;;;;5031818;28;20186;-76
2022/07/15 09:01:59;;;;;;;0.30;0.30;;;27.30;1.00;;;;;;5032496;28;20269;-76
2022/07/15 09:04:24;;;;;;;0.30;0.30;;;27.30;1.00;;;;;;5032422;28;20516;-76
2022/07/15 09:06:51;;;;;;;0.20;0.20;;;26.90;1.00;;;;;;5032442;28;20267;-76
2022/07/15 09:09:34;;;;;;;0.30;0.30;;;26.50;1.00;;;;;;5032233;28;20180;-76
2022/07/15 09:12:05;;;;;;;0.40;0.40;;;26.70;1.00;;;;;;5031328;28;20203;-78
2022/07/15 09:14:33;;;;;;;0.27;0.27;;;27.00;1.00;;;;;;5036549;28;20585;-76
2022/07/15 09:17:09;;;;;;;0.37;0.37;;;27.00;1.00;;;;;;5052246;28;20179;-78
2022/07/15 09:20:05;;;;;;;0.40;0.40;;;27.10;1.00;;;;;;5046011;28;20186;-77
2022/07/15 09:22:33;;;;;;;0.20;0.20;;;27.50;1.00;;;;;;5040214;28;20203;-78
2022/07/15 09:25:10;;;;;;;0.40;0.40;;;27.50;1.00;;;;;;5039784;28;20176;-78
2022/07/15 09:27:41;;;;;;;0.30;0.30;;;28.00;1.00;;;;;;5037447;28;20180;-78
2022/07/15 09:36:03;;;;;;;0.40;0.40;;;29.40;1.00;;;;;;5033293;28;20698;-77
2022/07/15 09:38:40;;;;;;;0.30;0.30;;;29.40;1.00;;;;;;5032527;28;20203;-77
2022/07/15 09:41:12;;;;;;;0.30;0.30;;;29.50;1.00;;;;;;5036985;28;20611;-78
2022/07/15 09:43:49;;;;;;;0.53;0.53;;;30.00;1.00;;;;;;5044555;28;20207;-78
2022/07/15 09:46:15;;;;;;;0.57;0.57;;;30.60;1.00;;;;;;5044992;28;20248;-79
2022/07/15 09:48:43;;;;;;;0.43;0.43;;;31.00;1.00;;;;;;5043782;28;20186;-78
2022/07/15 09:51:09;;;;;;;0.60;0.60;;;31.30;1.00;;;;;;5045138;28;20257;-79
2022/07/15 09:53:36;;;;;;;0.50;0.50;;;31.40;1.00;;;;;;5052476;28;20198;-80
2022/07/15 09:56:03;;;;;;;0.60;0.60;;;31.60;1.00;;;;;;5054100;28;20171;-78
2022/07/15 09:58:29;;;;;;;0.57;0.57;;;31.70;1.00;;;;;;5052919;28;20278;-78
2022/07/15 10:00:55;;;;;;;0.47;0.47;;;31.60;1.00;;;;;;5034363;28;20665;-78
2022/07/15 10:03:23;;;;;;;0.67;0.67;;;31.70;1.00;;;;;;5038383;28;20208;-77
2022/07/15 10:05:53;;;;;;;0.60;0.60;;;31.50;1.00;;;;;;5040957;28;20273;-77
2022/07/15 10:08:20;;;;;;;0.43;0.43;;;30.90;1.00;;;;;;5039740;28;20198;-78
2022/07/15 10:10:48;;;;;;;0.53;0.53;;;30.30;1.00;;;;;;5051487;28;20301;-78
2022/07/15 10:13:46;;;;;;;0.60;0.60;;;30.40;1.00;;;;;;5051635;28;20756;-79
2022/07/15 10:16:37;;;;;;;0.57;0.57;;;30.70;1.00;;;;;;5051857;28;20190;-78
2022/07/15 10:19:19;;;;;;;0.50;0.50;;;31.10;1.00;;;;;;5040080;28;20269;-78
2022/07/15 10:22:08;;;;;;;0.63;0.63;;;30.70;1.00;;;;;;5043319;28;20186;-79
2022/07/15 10:24:43;;;;;;;0.33;0.33;;;30.30;1.00;;;;;;5051405;28;20228;-79
2022/07/15 10:27:42;;;;;;;0.60;0.60;;;30.30;1.00;;;;;;5051652;28;20547;-79
2022/07/15 10:30:08;;;;;;;0.50;0.50;;;30.60;1.00;;;;;;5050965;28;20272;-76
2022/07/15 10:33:13;;;;;;;0.40;0.40;;;30.90;1.00;;;;;;5051013;28;20199;-76
2022/07/15 10:35:46;;;;;;;0.60;0.60;;;31.20;1.00;;;;;;5051523;28;20371;-78
2022/07/15 10:38:22;;;;;;;0.40;0.40;;;31.30;1.00;;;;;;5041824;28;20191;-78
2022/07/15 10:41:11;;;;;;;0.53;0.53;;;31.00;1.00;;;;;;5053802;28;20651;-78
2022/07/15 10:43:44;;;;;;;0.63;0.63;;;31.10;1.00;;;;;;5053644;28;20191;-78
2022/07/15 10:46:15;;;;;;;0.60;0.60;;;30.90;1.00;;;;;;5054213;28;20179;-78
2022/07/15 10:48:41;;;;;;;0.50;0.50;;;30.80;1.00;;;;;;5035052;28;20179;-78
2022/07/15 10:51:07;;;;;;;0.63;0.63;;;30.90;1.00;;;;;;5042564;28;20246;-78
2022/07/15 10:53:41;;;;;;;0.60;0.60;;;31.00;1.00;;;;;;5053566;28;20199;-79
2022/07/15 10:56:25;;;;;;;0.50;0.50;;;31.10;1.00;;;;;;5056027;28;20225;-78
2022/07/15 10:59:35;;;;;;;0.35;0.35;;;31.20;1.00;;;;;;5043177;28;20182;-83
2022/07/15 11:02:00;;;;;;;0.50;0.50;;;31.50;1.00;;;;;;4935680;29;20203;-78
2022/07/15 11:04:31;;;;;;;0.50;0.50;;;31.50;1.00;;;;;;4935927;29;20270;-78
2022/07/15 11:07:09;;;;;;;0.57;0.57;;;31.60;1.00;;;;;;4979061;28;20663;-79
2022/07/15 11:09:55;;;;;;;0.50;0.50;;;31.60;1.00;;;;;;5038913;28;20207;-80
2022/07/15 11:12:28;;;;;;;0.60;0.60;;;31.70;1.00;;;;;;5044102;28;20549;-78
2022/07/15 11:14:57;;;;;;;0.50;0.50;;;31.60;1.00;;;;;;5046670;28;20224;-79
2022/07/15 11:17:29;;;;;;;0.55;0.55;;;31.60;1.00;;;;;;5054547;28;20528;-77
2022/07/15 11:20:08;;;;;;;0.50;0.50;;;31.70;1.00;;;;;;5054137;28;20175;-78
2022/07/15 11:22:35;;;;;;;0.43;0.43;;;31.50;1.00;;;;;;5054603;28;20255;-76
2022/07/15 11:25:01;;;;;;;0.47;0.47;;;31.50;1.00;;;;;;5054423;28;20257;-76
2022/07/15 11:27:26;;;;;;;0.50;0.50;;;31.60;1.00;;;;;;5054320;28;20214;-77
2022/07/15 11:29:55;;;;;;;0.50;0.50;;;31.60;1.00;;;;;;5038348;28;20744;-77
2022/07/15 11:32:22;;;;;;;0.50;0.50;;;31.80;1.00;;;;;;5026530;28;20350;-75
2022/07/15 11:34:56;;;;;;;0.40;0.40;;;31.90;1.00;;;;;;5043109;28;20183;-76
2022/07/15 11:37:36;;;;;;;0.52;0.52;;;31.90;1.00;;;;;;5043543;28;20190;-76
2022/07/15 11:40:09;;;;;;;0.60;0.60;;;31.70;1.00;;;;;;5033222;28;20290;-77
2022/07/15 11:45:35;;;;;;;0.60;0.60;;;31.40;1.00;;;;;;5037398;28;20194;-76
2022/07/15 11:48:01;;;;;;;0.50;0.50;;;31.60;1.00;;;;;;5040092;28;20191;-77
2022/07/15 11:50:27;;;;;;;0.60;0.60;;;31.50;1.00;;;;;;5040742;28;20215;-77
2022/07/15 11:52:58;;;;;;;0.63;0.63;;;31.50;1.00;;;;;;5040101;28;20191;-76
2022/07/15 11:55:24;;;;;;;0.60;0.60;;;31.70;1.00;;;;;;5040171;28;20543;-77
2022/07/15 11:57:51;;;;;;;0.70;0.70;;;32.00;1.00;;;;;;5039468;28;20195;-76
2022/07/15 12:00:26;;;;;;;0.50;0.50;;;31.20;1.00;;;;;;5040541;28;20583;-77
2022/07/15 12:03:05;;;;;;;0.40;0.40;;;31.30;1.00;;;;;;5038313;28;20297;-77
2022/07/15 12:05:31;;;;;;;0.50;0.50;;;31.50;1.00;;;;;;5042427;28;20175;-77
2022/07/15 12:07:56;;;;;;;0.60;0.60;;;31.50;1.00;;;;;;5040167;28;20598;-76
2022/07/15 12:10:37;;;;;;;0.60;0.60;;;31.50;1.00;;;;;;5033514;28;20803;-77
2022/07/15 12:13:04;;;;;;;0.60;0.60;;;31.30;1.00;;;;;;5037027;28;20203;-76
2022/07/15 12:15:31;;;;;;;0.40;0.40;;;31.40;1.00;;;;;;5037625;28;20176;-75
2022/07/15 12:17:57;;;;;;;0.50;0.50;;;31.80;1.00;;;;;;5033671;28;20187;-75
2022/07/15 12:20:23;;;;;;;0.50;0.50;;;32.10;1.00;;;;;;5025864;28;20179;-76
2022/07/15 12:23:09;;;;;;;0.40;0.40;;;31.80;1.00;;;;;;5030701;28;20218;-76
2022/07/15 12:25:35;;;;;;;0.43;0.43;;;31.50;1.00;;;;;;5035815;28;20183;-76
2022/07/15 12:28:01;;;;;;;0.68;0.68;;;31.10;1.00;;;;;;5035802;28;20180;-76
2022/07/15 12:30:35;;;;;;;0.47;0.47;;;30.70;1.00;;;;;;5035998;28;20211;-76
2022/07/15 12:33:20;;;;;;;0.70;0.70;;;30.80;1.00;;;;;;5042977;28;20200;-76
2022/07/15 12:35:46;;;;;;;0.40;0.40;;;30.90;1.00;;;;;;5039014;28;20172;-77
2022/07/15 12:38:30;;;;;;;0.60;0.60;;;30.90;1.00;;;;;;5036152;28;20666;-77
2022/07/15 12:41:22;;;;;;;0.45;0.45;;;30.80;1.00;;;;;;5036818;28;20286;-76
2022/07/15 12:43:51;;;;;;;0.50;0.50;;;31.10;1.00;;;;;;5035982;28;20220;-77
2022/07/15 12:46:17;;;;;;;0.50;0.50;;;31.20;1.00;;;;;;5047868;28;20175;-77
2022/07/15 12:48:48;;;;;;;0.40;0.40;;;31.10;1.00;;;;;;5045008;28;20183;-76
2022/07/15 12:51:17;;;;;;;0.40;0.40;;;30.50;1.00;;;;;;5043395;28;20212;-77
2022/07/15 12:53:43;;;;;;;0.60;0.60;;;30.10;1.00;;;;;;5042514;28;20199;-77
2022/07/15 12:56:10;;;;;;;0.60;0.60;;;29.90;1.00;;;;;;5039397;28;20323;-80
2022/07/15 12:58:37;;;;;;;0.40;0.40;;;30.30;1.00;;;;;;5051673;28;20188;-77
2022/07/15 13:01:14;;;;;;;0.30;0.30;;;30.60;1.00;;;;;;5046753;28;20198;-77
2022/07/15 13:03:41;;;;;;;0.40;0.40;;;31.00;1.00;;;;;;5056092;28;20201;-77
2022/07/15 13:06:08;;;;;;;0.40;0.40;;;31.10;1.00;;;;;;5050986;28;20191;-77
2022/07/15 13:08:36;;;;;;;0.40;0.40;;;31.10;1.00;;;;;;5040580;28;20199;-77
2022/07/15 13:11:04;;;;;;;0.60;0.60;;;31.50;1.00;;;;;;5042934;28;20204;-77
2022/07/15 13:13:33;;;;;;;0.50;0.50;;;31.50;1.00;;;;;;5032633;28;20294;-77